createdAt,value
2017-03-04T00:00:13.814Z,5
2017-03-04T00:00:54.526Z,5.05
2017-03-04T00:01:46.119Z,4.99
2017-03-04T00:02:28.804Z,4.97
2017-03-04T00:03:11.513Z,4.93
2017-03-04T00:03:53.192Z,4.97
2017-03-04T00:04:35.888Z,4.96
2017-03-04T00:05:18.615Z,4.99
2017-03-04T00:05:59.272Z,4.99
2017-03-04T00:06:41.914Z,4.94
2017-03-04T00:07:22.486Z,4.94
2017-03-04T00:08:05.192Z,4.99
2017-03-04T00:08:46.897Z,4.9
2017-03-04T00:09:32.309Z,4.96
2017-03-04T00:10:12.881Z,4.96
2017-03-04T00:10:55.598Z,4.87
2017-03-04T00:11:36.273Z,4.9
2017-03-04T00:12:21.590Z,4.86
2017-03-04T00:13:03.292Z,4.89
2017-03-04T00:13:54.684Z,4.86
2017-03-04T00:14:40.155Z,4.84
2017-03-04T00:15:20.937Z,4.84
2017-03-04T00:16:01.665Z,4.8
2017-03-04T00:16:43.371Z,4.84
2017-03-04T00:17:24.090Z,4.77
2017-03-04T00:18:06.792Z,4.82
2017-03-04T00:18:53.212Z,4.82
2017-03-04T00:19:33.959Z,4.82
2017-03-04T00:20:20.122Z,4.75
2017-03-04T00:21:06.442Z,4.78
2017-03-04T00:21:47.136Z,4.84
2017-03-04T00:22:27.706Z,4.86
2017-03-04T00:23:08.291Z,4.82
2017-03-04T00:23:49.049Z,4.78
2017-03-04T00:24:30.772Z,4.74
2017-03-04T00:25:11.336Z,4.75
2017-03-04T00:25:52.000Z,4.7
2017-03-04T00:26:43.646Z,4.71
2017-03-04T00:27:26.433Z,4.82
2017-03-04T00:28:07.161Z,4.75
2017-03-04T00:28:48.840Z,4.71
2017-03-04T00:29:29.557Z,4.7
2017-03-04T00:30:10.240Z,4.71
2017-03-04T00:30:50.897Z,4.7
2017-03-04T00:31:31.562Z,4.67
2017-03-04T00:32:12.320Z,4.67
2017-03-04T00:33:03.606Z,4.63
2017-03-04T00:33:44.281Z,4.62
2017-03-04T00:34:29.630Z,4.63
2017-03-04T00:35:10.284Z,4.63
2017-03-04T00:35:50.971Z,4.67
2017-03-04T00:36:36.379Z,4.63
2017-03-04T00:37:16.944Z,4.7
2017-03-04T00:37:58.644Z,4.62
2017-03-04T00:38:51.908Z,4.6
2017-03-04T00:39:32.614Z,4.68
2017-03-04T00:40:13.181Z,4.59
2017-03-04T00:40:53.841Z,4.66
2017-03-04T00:41:34.572Z,4.63
2017-03-04T00:42:15.131Z,4.66
2017-03-04T00:42:55.790Z,4.66
2017-03-04T00:43:38.477Z,4.6
2017-03-04T00:44:19.049Z,4.67
2017-03-04T00:45:00.728Z,4.68
2017-03-04T00:45:43.407Z,4.67
2017-03-04T00:46:25.080Z,4.67
2017-03-04T00:47:05.836Z,4.63
2017-03-04T00:47:51.301Z,4.68
2017-03-04T00:48:31.967Z,4.63
2017-03-04T00:49:12.606Z,4.7
2017-03-04T00:49:59.811Z,4.62
2017-03-04T00:50:56.339Z,4.6
2017-03-04T00:51:36.998Z,4.66
2017-03-04T00:52:17.747Z,4.68
2017-03-04T00:52:58.402Z,4.62
2017-03-04T00:53:39.066Z,4.63
2017-03-04T00:54:19.718Z,4.63
2017-03-04T00:55:00.476Z,4.71
2017-03-04T00:55:41.231Z,4.62
2017-03-04T00:56:21.950Z,4.63
2017-03-04T00:57:02.657Z,4.67
2017-03-04T00:57:43.412Z,4.62
2017-03-04T00:58:24.165Z,4.62
2017-03-04T00:59:04.819Z,4.59
2017-03-04T00:59:45.589Z,4.6
2017-03-04T01:00:26.333Z,4.56
2017-03-04T01:01:07.039Z,4.62
2017-03-04T01:01:47.702Z,4.59
2017-03-04T01:02:28.340Z,4.59
2017-03-04T01:03:08.983Z,4.6
2017-03-04T01:03:49.652Z,4.58
2017-03-04T01:04:30.349Z,4.52
2017-03-04T01:05:11.045Z,4.58
2017-03-04T01:05:51.699Z,4.5
2017-03-04T01:06:32.382Z,4.5
2017-03-04T01:07:13.007Z,4.48
2017-03-04T01:07:53.670Z,4.53
2017-03-04T01:08:34.367Z,4.52
2017-03-04T01:09:15.079Z,4.49
2017-03-04T01:09:55.747Z,4.49
2017-03-04T01:10:36.375Z,4.5
2017-03-04T01:11:17.045Z,4.45
2017-03-04T01:11:57.677Z,4.48
2017-03-04T01:12:38.348Z,4.58
2017-03-04T01:13:18.997Z,4.49
2017-03-04T01:13:59.649Z,4.48
2017-03-04T01:14:40.304Z,4.49
2017-03-04T01:15:20.957Z,4.52
2017-03-04T01:16:01.645Z,4.56
2017-03-04T01:16:42.344Z,4.5
2017-03-04T01:17:22.913Z,4.53
2017-03-04T01:18:03.582Z,4.58
2017-03-04T01:18:44.276Z,4.56
2017-03-04T01:19:24.957Z,4.59
2017-03-04T01:20:05.518Z,4.59
2017-03-04T01:20:46.185Z,4.66
2017-03-04T01:21:26.846Z,4.63
2017-03-04T01:22:07.469Z,4.63
2017-03-04T01:22:48.138Z,4.6
2017-03-04T01:23:28.753Z,4.67
2017-03-04T01:24:09.445Z,4.6
2017-03-04T01:24:50.098Z,4.67
2017-03-04T01:25:30.755Z,4.67
2017-03-04T01:26:11.458Z,4.7
2017-03-04T01:26:52.143Z,4.68
2017-03-04T01:27:32.702Z,4.63
2017-03-04T01:28:13.378Z,4.62
2017-03-04T01:28:54.066Z,4.59
2017-03-04T01:29:34.752Z,4.62
2017-03-04T01:30:15.326Z,4.63
2017-03-04T01:30:55.973Z,4.63
2017-03-04T01:31:37.701Z,4.71
2017-03-04T01:32:18.388Z,4.67
2017-03-04T01:32:59.362Z,4.62
2017-03-04T01:33:40.077Z,4.73
2017-03-04T01:34:20.769Z,4.74
2017-03-04T01:35:01.563Z,4.8
2017-03-04T01:35:42.148Z,4.73
2017-03-04T01:36:22.890Z,4.73
2017-03-04T01:37:03.640Z,4.71
2017-03-04T01:37:44.408Z,4.75
2017-03-04T01:38:25.162Z,4.7
2017-03-04T01:39:05.911Z,4.73
2017-03-04T01:39:46.664Z,4.75
2017-03-04T01:40:27.418Z,4.78
2017-03-04T01:41:08.116Z,4.75
2017-03-04T01:41:48.807Z,4.71
2017-03-04T01:42:29.395Z,4.71
2017-03-04T01:43:10.131Z,4.78
2017-03-04T01:43:50.830Z,4.86
2017-03-04T01:44:31.528Z,4.84
2017-03-04T01:45:12.092Z,4.8
2017-03-04T01:45:52.856Z,4.84
2017-03-04T01:46:33.534Z,4.78
2017-03-04T01:47:14.244Z,4.82
2017-03-04T01:47:54.805Z,4.78
2017-03-04T01:48:35.560Z,4.82
2017-03-04T01:49:16.260Z,4.82
2017-03-04T01:49:56.951Z,4.84
2017-03-04T01:50:37.543Z,4.89
2017-03-04T01:51:18.283Z,4.87
2017-03-04T01:51:59.028Z,4.86
2017-03-04T01:52:39.781Z,4.82
2017-03-04T01:53:20.537Z,4.87
2017-03-04T01:54:01.294Z,4.92
2017-03-04T01:54:42.090Z,4.94
2017-03-04T01:55:22.793Z,4.89
2017-03-04T01:56:03.578Z,4.9
2017-03-04T01:56:44.315Z,4.97
2017-03-04T01:57:25.070Z,4.94
2017-03-04T01:58:05.827Z,4.89
2017-03-04T01:58:46.584Z,5.07
2017-03-04T01:59:27.347Z,4.99
2017-03-04T02:00:08.094Z,4.96
2017-03-04T02:00:48.848Z,5.04
2017-03-04T02:01:29.555Z,5.04
2017-03-04T02:02:10.242Z,4.93
2017-03-04T02:02:50.881Z,5.02
2017-03-04T02:03:31.565Z,4.93
2017-03-04T02:04:12.261Z,4.94
2017-03-04T02:04:52.957Z,5
2017-03-04T02:05:33.522Z,4.94
2017-03-04T02:06:14.280Z,5.07
2017-03-04T02:06:55.032Z,4.99
2017-03-04T02:07:35.821Z,4.93
2017-03-04T02:08:16.550Z,4.94
2017-03-04T02:08:57.312Z,5
2017-03-04T02:09:39.079Z,4.9
2017-03-04T02:10:19.840Z,5.02
2017-03-04T02:11:00.597Z,4.97
2017-03-04T02:11:41.346Z,4.93
2017-03-04T02:12:24.074Z,4.94
2017-03-04T02:13:04.794Z,4.94
2017-03-04T02:13:45.558Z,4.92
2017-03-04T02:14:26.306Z,5.02
2017-03-04T02:15:19.659Z,5.02
2017-03-04T02:16:06.155Z,4.97
2017-03-04T02:16:46.841Z,5.05
2017-03-04T02:17:27.526Z,5.08
2017-03-04T02:18:08.109Z,5.04
2017-03-04T02:18:48.860Z,5.05
2017-03-04T02:19:30.565Z,5.04
2017-03-04T02:20:13.317Z,4.93
2017-03-04T02:20:53.872Z,4.93
2017-03-04T02:21:34.544Z,4.96
2017-03-04T02:22:27.249Z,4.96
2017-03-04T02:23:08.962Z,4.96
2017-03-04T02:23:50.747Z,4.99
2017-03-04T02:24:32.319Z,5.04
2017-03-04T02:25:24.757Z,5.08
2017-03-04T02:26:06.531Z,5
2017-03-04T02:26:47.274Z,4.99
2017-03-04T02:27:34.684Z,4.96
2017-03-04T02:28:15.443Z,4.94
2017-03-04T02:28:56.195Z,4.99
2017-03-04T02:29:41.655Z,4.97
2017-03-04T02:30:24.355Z,4.94
2017-03-04T02:31:05.130Z,5.02
2017-03-04T02:31:47.827Z,5.08
2017-03-04T02:32:28.601Z,5.02
2017-03-04T02:33:25.089Z,4.99
2017-03-04T02:34:10.353Z,5.11
2017-03-04T02:34:51.096Z,5.02
2017-03-04T02:35:31.846Z,4.99
2017-03-04T02:36:12.544Z,4.99
2017-03-04T02:36:53.196Z,5.1
2017-03-04T02:37:33.851Z,4.96
2017-03-04T02:38:15.529Z,5.08
2017-03-04T02:38:56.184Z,4.97
2017-03-04T02:39:36.837Z,4.96
2017-03-04T02:40:17.496Z,5.05
2017-03-04T02:40:58.072Z,4.92
2017-03-04T02:41:39.736Z,4.93
2017-03-04T02:42:20.441Z,4.96
2017-03-04T02:43:05.837Z,4.96
2017-03-04T02:43:46.431Z,4.97
2017-03-04T02:44:27.073Z,5
2017-03-04T02:45:07.768Z,5
2017-03-04T02:45:49.472Z,4.96
2017-03-04T02:46:30.051Z,5.02
2017-03-04T02:47:15.606Z,5.05
2017-03-04T02:47:56.249Z,5.04
2017-03-04T02:48:36.860Z,4.94
2017-03-04T02:49:17.459Z,4.97
2017-03-04T02:49:58.098Z,4.92
2017-03-04T02:50:38.673Z,5
2017-03-04T02:51:19.318Z,5.07
2017-03-04T02:52:00.013Z,4.96
2017-03-04T02:52:40.715Z,5.02
2017-03-04T02:53:21.277Z,4.99
2017-03-04T02:54:04.092Z,5
2017-03-04T02:54:44.785Z,5.08
2017-03-04T02:55:26.498Z,4.9
2017-03-04T02:56:07.069Z,4.92
2017-03-04T02:56:49.772Z,4.99
2017-03-04T02:57:30.468Z,5.04
2017-03-04T02:58:11.159Z,4.97
2017-03-04T02:58:51.716Z,4.99
2017-03-04T02:59:32.379Z,5.04
2017-03-04T03:00:13.071Z,4.99
2017-03-04T03:00:53.770Z,5.07
2017-03-04T03:01:34.338Z,5.05
2017-03-04T03:02:14.996Z,5.08
2017-03-04T03:02:55.645Z,5.12
2017-03-04T03:03:36.295Z,5.07
2017-03-04T03:04:16.952Z,5.11
2017-03-04T03:04:57.606Z,5.15
2017-03-04T03:05:38.268Z,5.17
2017-03-04T03:06:18.915Z,5.17
2017-03-04T03:07:00.581Z,5.18
2017-03-04T03:07:41.241Z,5.17
2017-03-04T03:08:21.946Z,5.12
2017-03-04T03:09:02.707Z,5.11
2017-03-04T03:09:50.217Z,5.23
2017-03-04T03:10:30.975Z,5.18
2017-03-04T03:11:18.549Z,5.26
2017-03-04T03:12:00.271Z,5.26
2017-03-04T03:12:40.820Z,5.26
2017-03-04T03:13:21.577Z,5.26
2017-03-04T03:14:02.251Z,5.21
2017-03-04T03:14:42.946Z,5.26
2017-03-04T03:15:23.509Z,5.38
2017-03-04T03:16:04.183Z,5.35
2017-03-04T03:16:44.930Z,5.32
2017-03-04T03:17:25.568Z,5.36
2017-03-04T03:18:06.235Z,5.38
2017-03-04T03:18:46.997Z,5.38
2017-03-04T03:19:27.745Z,5.33
2017-03-04T03:20:08.498Z,5.38
2017-03-04T03:20:49.166Z,5.36
2017-03-04T03:21:29.940Z,5.35
2017-03-04T03:22:10.640Z,5.44
2017-03-04T03:22:51.249Z,5.36
2017-03-04T03:23:31.970Z,5.38
2017-03-04T03:24:12.669Z,5.39
2017-03-04T03:24:53.354Z,5.41
2017-03-04T03:25:33.939Z,5.46
2017-03-04T03:26:14.684Z,5.44
2017-03-04T03:26:55.359Z,5.47
2017-03-04T03:27:36.077Z,5.46
2017-03-04T03:28:16.846Z,5.47
2017-03-04T03:28:57.604Z,5.39
2017-03-04T03:29:38.368Z,5.38
2017-03-04T03:30:19.137Z,5.41
2017-03-04T03:30:59.920Z,5.51
2017-03-04T03:31:40.618Z,5.46
2017-03-04T03:32:21.374Z,5.44
2017-03-04T03:33:02.119Z,5.47
2017-03-04T03:33:42.889Z,5.43
2017-03-04T03:34:23.640Z,5.51
2017-03-04T03:35:04.398Z,5.46
2017-03-04T03:35:45.049Z,5.47
2017-03-04T03:36:25.784Z,5.43
2017-03-04T03:37:06.352Z,5.5
2017-03-04T03:37:47.114Z,5.5
2017-03-04T03:38:27.846Z,5.41
2017-03-04T03:39:08.404Z,5.5
2017-03-04T03:39:48.987Z,5.46
2017-03-04T03:40:29.702Z,5.48
2017-03-04T03:41:10.273Z,5.5
2017-03-04T03:41:51.040Z,5.43
2017-03-04T03:42:31.784Z,5.43
2017-03-04T03:43:12.539Z,5.44
2017-03-04T03:43:53.295Z,5.46
2017-03-04T03:44:34.052Z,5.35
2017-03-04T03:45:14.809Z,5.44
2017-03-04T03:45:55.571Z,5.44
2017-03-04T03:46:36.295Z,5.43
2017-03-04T03:47:16.865Z,5.35
2017-03-04T03:47:57.621Z,5.43
2017-03-04T03:48:38.358Z,5.43
2017-03-04T03:49:18.926Z,5.43
2017-03-04T03:49:59.705Z,5.38
2017-03-04T03:50:40.425Z,5.38
2017-03-04T03:51:21.177Z,5.44
2017-03-04T03:52:01.928Z,5.36
2017-03-04T03:52:42.690Z,5.41
2017-03-04T03:53:23.439Z,5.38
2017-03-04T03:54:04.200Z,5.47
2017-03-04T03:54:44.956Z,5.48
2017-03-04T03:55:25.704Z,5.46
2017-03-04T03:56:06.259Z,5.47
2017-03-04T03:56:46.922Z,5.44
2017-03-04T03:57:28.648Z,5.48
2017-03-04T03:58:09.454Z,5.43
2017-03-04T03:58:50.025Z,5.39
2017-03-04T03:59:30.777Z,5.44
2017-03-04T04:00:11.476Z,5.44
2017-03-04T04:00:52.169Z,5.5
2017-03-04T04:01:32.778Z,5.39
2017-03-04T04:02:13.490Z,5.51
2017-03-04T04:02:54.240Z,5.5
2017-03-04T04:03:34.988Z,5.48
2017-03-04T04:04:15.753Z,5.41
2017-03-04T04:04:56.496Z,5.44
2017-03-04T04:05:37.258Z,5.51
2017-03-04T04:06:18.051Z,5.59
2017-03-04T04:06:58.775Z,5.43
2017-03-04T04:07:39.524Z,5.5
2017-03-04T04:08:20.288Z,5.47
2017-03-04T04:09:01.057Z,5.57
2017-03-04T04:09:41.787Z,5.56
2017-03-04T04:10:22.549Z,5.53
2017-03-04T04:11:03.311Z,5.59
2017-03-04T04:11:43.994Z,5.51
2017-03-04T04:12:24.699Z,5.59
2017-03-04T04:13:05.267Z,5.61
2017-03-04T04:13:46.006Z,5.61
2017-03-04T04:14:26.718Z,5.62
2017-03-04T04:15:07.416Z,5.65
2017-03-04T04:15:47.964Z,5.68
2017-03-04T04:16:28.736Z,5.62
2017-03-04T04:17:09.538Z,5.62
2017-03-04T04:17:50.230Z,5.66
2017-03-04T04:18:30.791Z,5.69
2017-03-04T04:19:11.572Z,5.71
2017-03-04T04:19:52.253Z,5.66
2017-03-04T04:20:32.941Z,5.68
2017-03-04T04:21:13.531Z,5.65
2017-03-04T04:21:54.267Z,5.59
2017-03-04T04:22:35.032Z,5.69
2017-03-04T04:23:15.799Z,5.64
2017-03-04T04:23:56.544Z,5.56
2017-03-04T04:24:37.296Z,5.68
2017-03-04T04:25:18.076Z,5.72
2017-03-04T04:25:58.797Z,5.68
2017-03-04T04:26:39.596Z,5.62
2017-03-04T04:27:20.311Z,5.66
2017-03-04T04:28:01.073Z,5.73
2017-03-04T04:28:41.719Z,5.61
2017-03-04T04:29:22.471Z,5.69
2017-03-04T04:30:03.242Z,5.66
2017-03-04T04:30:43.983Z,5.72
2017-03-04T04:31:24.720Z,5.76
2017-03-04T04:32:05.280Z,5.57
2017-03-04T04:32:46.048Z,5.72
2017-03-04T04:33:26.778Z,5.71
2017-03-04T04:34:07.369Z,5.65
2017-03-04T04:34:48.118Z,5.65
2017-03-04T04:35:28.844Z,5.61
2017-03-04T04:36:09.418Z,5.69
2017-03-04T04:36:50.172Z,5.59
2017-03-04T04:37:30.857Z,5.68
2017-03-04T04:38:11.453Z,5.64
2017-03-04T04:38:52.064Z,5.72
2017-03-04T04:39:32.779Z,5.73
2017-03-04T04:40:13.474Z,5.64
2017-03-04T04:40:54.273Z,5.69
2017-03-04T04:41:35.035Z,5.61
2017-03-04T04:42:15.790Z,5.66
2017-03-04T04:42:56.545Z,5.65
2017-03-04T04:43:37.297Z,5.72
2017-03-04T04:44:18.049Z,5.72
2017-03-04T04:44:58.812Z,5.57
2017-03-04T04:45:39.558Z,5.73
2017-03-04T04:46:20.313Z,5.68
2017-03-04T04:47:01.073Z,5.64
2017-03-04T04:47:41.823Z,5.72
2017-03-04T04:48:22.477Z,5.66
2017-03-04T04:49:03.234Z,5.69
2017-03-04T04:49:44.912Z,5.71
2017-03-04T04:50:25.672Z,5.61
2017-03-04T04:51:06.418Z,5.71
2017-03-04T04:51:47.175Z,5.68
2017-03-04T04:52:27.940Z,5.68
2017-03-04T04:53:08.586Z,5.56
2017-03-04T04:53:49.354Z,5.68
2017-03-04T04:54:30.096Z,5.62
2017-03-04T04:55:10.855Z,5.66
2017-03-04T04:55:51.607Z,5.68
2017-03-04T04:56:32.172Z,5.62
2017-03-04T04:57:12.937Z,5.65
2017-03-04T04:57:53.618Z,5.68
2017-03-04T04:58:34.320Z,5.56
2017-03-04T04:59:14.884Z,5.72
2017-03-04T04:59:55.654Z,5.65
2017-03-04T05:00:36.437Z,5.65
2017-03-04T05:01:17.133Z,5.64
2017-03-04T05:01:57.713Z,5.59
2017-03-04T05:02:38.305Z,5.59
2017-03-04T05:03:19.932Z,5.59
2017-03-04T05:04:00.688Z,5.59
2017-03-04T05:04:42.786Z,5.57
2017-03-04T05:05:23.527Z,5.57
2017-03-04T05:06:04.295Z,5.56
2017-03-04T05:06:45.038Z,5.59
2017-03-04T05:07:25.808Z,5.48
2017-03-04T05:08:06.550Z,5.57
2017-03-04T05:08:47.357Z,5.48
2017-03-04T05:09:28.065Z,5.54
2017-03-04T05:10:08.817Z,5.51
2017-03-04T05:10:49.594Z,5.47
2017-03-04T05:11:30.324Z,5.51
2017-03-04T05:12:11.079Z,5.56
2017-03-04T05:12:51.847Z,5.57
2017-03-04T05:13:32.586Z,5.59
2017-03-04T05:14:13.343Z,5.48
2017-03-04T05:14:54.103Z,5.57
2017-03-04T05:15:34.875Z,5.51
2017-03-04T05:16:15.525Z,5.59
2017-03-04T05:16:56.273Z,5.51
2017-03-04T05:17:37.044Z,5.47
2017-03-04T05:18:17.776Z,5.53
2017-03-04T05:18:58.532Z,5.47
2017-03-04T05:19:39.317Z,5.54
2017-03-04T05:20:20.053Z,5.53
2017-03-04T05:21:00.797Z,5.47
2017-03-04T05:21:41.552Z,5.51
2017-03-04T05:22:22.309Z,5.5
2017-03-04T05:23:03.063Z,5.56
2017-03-04T05:23:43.719Z,5.5
2017-03-04T05:24:24.469Z,5.56
2017-03-04T05:25:05.227Z,5.56
2017-03-04T05:25:45.986Z,5.57
2017-03-04T05:26:26.742Z,5.59
2017-03-04T05:27:07.534Z,5.56
2017-03-04T05:27:48.232Z,5.68
2017-03-04T05:28:28.803Z,5.66
2017-03-04T05:29:09.549Z,5.66
2017-03-04T05:29:50.349Z,5.61
2017-03-04T05:30:31.057Z,5.71
2017-03-04T05:31:11.620Z,5.68
2017-03-04T05:31:52.409Z,5.68
2017-03-04T05:32:33.013Z,5.72
2017-03-04T05:33:13.775Z,5.75
2017-03-04T05:33:54.532Z,5.72
2017-03-04T05:34:35.309Z,5.73
2017-03-04T05:35:16.042Z,5.71
2017-03-04T05:35:56.812Z,5.76
2017-03-04T05:36:37.557Z,5.75
2017-03-04T05:37:18.359Z,5.84
2017-03-04T05:37:59.156Z,5.72
2017-03-04T05:38:39.713Z,5.79
2017-03-04T05:39:20.488Z,5.86
2017-03-04T05:40:01.270Z,5.83
2017-03-04T05:40:41.970Z,5.89
2017-03-04T05:41:22.532Z,5.83
2017-03-04T05:42:03.193Z,5.89
2017-03-04T05:42:43.947Z,5.9
2017-03-04T05:43:24.601Z,5.93
2017-03-04T05:44:05.256Z,5.97
2017-03-04T05:44:45.899Z,5.94
2017-03-04T05:45:26.553Z,5.97
2017-03-04T05:46:07.260Z,5.97
2017-03-04T05:46:47.948Z,5.91
2017-03-04T05:47:28.517Z,5.98
2017-03-04T05:48:09.169Z,5.94
2017-03-04T05:48:49.864Z,5.98
2017-03-04T05:49:30.464Z,5.99
2017-03-04T05:50:11.047Z,6.01
2017-03-04T05:50:51.694Z,5.98
2017-03-04T05:51:32.389Z,5.98
2017-03-04T05:52:13.020Z,6.08
2017-03-04T05:52:53.677Z,6.04
2017-03-04T05:53:34.335Z,6.19
2017-03-04T05:54:14.982Z,6.11
2017-03-04T05:54:55.633Z,6.17
2017-03-04T05:55:36.292Z,6.17
2017-03-04T05:56:17.972Z,6.08
2017-03-04T05:56:58.664Z,6.12
2017-03-04T05:57:39.240Z,6.17
2017-03-04T05:58:19.890Z,6.17
2017-03-04T05:59:00.577Z,6.19
2017-03-04T05:59:41.176Z,6.17
2017-03-04T06:00:21.726Z,6.2
2017-03-04T06:01:02.408Z,6.3
2017-03-04T06:01:43.089Z,6.2
2017-03-04T06:02:23.744Z,6.24
2017-03-04T06:03:04.318Z,6.19
2017-03-04T06:03:44.996Z,6.24
2017-03-04T06:04:25.663Z,6.26
2017-03-04T06:05:06.330Z,6.27
2017-03-04T06:05:46.953Z,6.28
2017-03-04T06:06:27.554Z,6.28
2017-03-04T06:07:08.193Z,6.33
2017-03-04T06:07:48.762Z,6.36
2017-03-04T06:08:29.362Z,6.36
2017-03-04T06:09:09.959Z,6.36
2017-03-04T06:09:50.562Z,6.41
2017-03-04T06:10:31.129Z,6.36
2017-03-04T06:11:11.781Z,6.26
2017-03-04T06:11:52.470Z,6.36
2017-03-04T06:12:33.123Z,6.31
2017-03-04T06:13:13.786Z,6.36
2017-03-04T06:13:54.431Z,6.31
2017-03-04T06:14:35.098Z,6.42
2017-03-04T06:15:15.735Z,6.36
2017-03-04T06:15:56.406Z,6.44
2017-03-04T06:16:37.093Z,6.45
2017-03-04T06:17:17.679Z,6.35
2017-03-04T06:17:58.311Z,6.31
2017-03-04T06:18:39.015Z,6.31
2017-03-04T06:19:19.712Z,6.36
2017-03-04T06:20:00.288Z,6.52
2017-03-04T06:20:41.326Z,6.33
2017-03-04T06:21:22.015Z,6.52
2017-03-04T06:22:02.577Z,6.48
2017-03-04T06:22:43.280Z,6.46
2017-03-04T06:23:23.928Z,6.42
2017-03-04T06:24:04.481Z,6.45
2017-03-04T06:24:45.147Z,6.49
2017-03-04T06:25:25.790Z,6.51
2017-03-04T06:26:06.374Z,6.48
2017-03-04T06:26:47.009Z,6.52
2017-03-04T06:27:27.696Z,6.52
2017-03-04T06:28:08.471Z,6.52
2017-03-04T06:28:49.152Z,6.54
2017-03-04T06:29:29.811Z,6.51
2017-03-04T06:30:10.456Z,6.48
2017-03-04T06:30:51.109Z,6.52
2017-03-04T06:31:31.668Z,6.51
2017-03-04T06:32:12.330Z,6.45
2017-03-04T06:32:53.009Z,6.51
2017-03-04T06:33:33.644Z,6.59
2017-03-04T06:34:14.305Z,6.57
2017-03-04T06:34:54.942Z,6.6
2017-03-04T06:35:35.604Z,6.57
2017-03-04T06:36:16.242Z,6.56
2017-03-04T06:36:56.882Z,6.54
2017-03-04T06:37:37.444Z,6.63
2017-03-04T06:38:18.130Z,6.56
2017-03-04T06:38:58.753Z,6.59
2017-03-04T06:39:39.336Z,6.59
2017-03-04T06:40:20.998Z,6.62
2017-03-04T06:41:01.724Z,6.66
2017-03-04T06:41:42.376Z,6.62
2017-03-04T06:42:23.035Z,6.62
2017-03-04T06:43:03.684Z,6.66
2017-03-04T06:43:44.336Z,6.67
2017-03-04T06:44:24.987Z,6.66
2017-03-04T06:45:05.648Z,6.64
2017-03-04T06:45:46.295Z,6.66
2017-03-04T06:46:26.886Z,6.6
2017-03-04T06:47:07.510Z,6.6
2017-03-04T06:47:48.120Z,6.59
2017-03-04T06:48:28.804Z,6.64
2017-03-04T06:49:09.373Z,6.67
2017-03-04T06:49:50.022Z,6.64
2017-03-04T06:50:30.842Z,6.64
2017-03-04T06:51:11.420Z,6.69
2017-03-04T06:51:52.131Z,6.7
2017-03-04T06:52:32.910Z,6.7
2017-03-04T06:53:13.530Z,6.63
2017-03-04T06:53:54.195Z,6.72
2017-03-04T06:54:34.841Z,6.81
2017-03-04T06:55:15.495Z,6.79
2017-03-04T06:55:56.201Z,6.75
2017-03-04T06:56:36.754Z,6.74
2017-03-04T06:57:17.435Z,6.82
2017-03-04T06:57:58.145Z,6.75
2017-03-04T06:58:38.808Z,6.85
2017-03-04T06:59:19.387Z,6.78
2017-03-04T07:00:00.027Z,6.88
2017-03-04T07:00:40.712Z,6.84
2017-03-04T07:01:21.415Z,6.85
2017-03-04T07:02:02.044Z,6.88
2017-03-04T07:02:42.739Z,6.99
2017-03-04T07:03:23.432Z,6.95
2017-03-04T07:04:04.131Z,6.84
2017-03-04T07:04:44.735Z,6.95
2017-03-04T07:05:25.303Z,6.84
2017-03-04T07:06:05.888Z,7
2017-03-04T07:06:46.571Z,6.99
2017-03-04T07:07:27.252Z,6.99
2017-03-04T07:08:07.946Z,7
2017-03-04T07:08:48.524Z,7.05
2017-03-04T07:09:29.166Z,6.99
2017-03-04T07:10:09.865Z,7.02
2017-03-04T07:10:50.561Z,7.1
2017-03-04T07:11:31.161Z,7
2017-03-04T07:12:11.836Z,7.06
2017-03-04T07:12:52.487Z,6.99
2017-03-04T07:13:33.191Z,7.14
2017-03-04T07:14:13.762Z,7.11
2017-03-04T07:14:54.404Z,7.18
2017-03-04T07:15:35.085Z,7.15
2017-03-04T07:16:15.674Z,7.11
2017-03-04T07:16:56.263Z,7.18
2017-03-04T07:17:36.920Z,7.23
2017-03-04T07:18:17.536Z,7.23
2017-03-04T07:18:58.118Z,7.17
2017-03-04T07:19:38.761Z,7.2
2017-03-04T07:20:19.392Z,7.21
2017-03-04T07:20:59.985Z,7.24
2017-03-04T07:21:40.606Z,7.29
2017-03-04T07:22:21.311Z,7.31
2017-03-04T07:23:02.034Z,7.2
2017-03-04T07:23:42.665Z,7.25
2017-03-04T07:24:23.342Z,7.24
2017-03-04T07:25:04.022Z,7.25
2017-03-04T07:25:44.724Z,7.31
2017-03-04T07:26:25.284Z,7.38
2017-03-04T07:27:05.948Z,7.33
2017-03-04T07:27:46.606Z,7.35
2017-03-04T07:28:27.366Z,7.35
2017-03-04T07:29:08.015Z,7.36
2017-03-04T07:29:48.696Z,7.45
2017-03-04T07:30:29.321Z,7.38
2017-03-04T07:31:09.969Z,7.45
2017-03-04T07:31:50.702Z,7.43
2017-03-04T07:32:31.285Z,7.48
2017-03-04T07:33:11.918Z,7.5
2017-03-04T07:33:52.556Z,7.54
2017-03-04T07:34:33.130Z,7.54
2017-03-04T07:35:13.774Z,7.48
2017-03-04T07:35:54.517Z,7.54
2017-03-04T07:36:35.085Z,7.54
2017-03-04T07:37:15.729Z,7.56
2017-03-04T07:37:56.392Z,7.56
2017-03-04T07:38:37.016Z,7.56
2017-03-04T07:39:17.712Z,7.67
2017-03-04T07:39:58.428Z,7.7
2017-03-04T07:40:39.016Z,7.67
2017-03-04T07:41:19.652Z,7.7
2017-03-04T07:42:00.293Z,7.79
2017-03-04T07:42:41.961Z,7.83
2017-03-04T07:43:22.617Z,7.8
2017-03-04T07:44:03.266Z,7.91
2017-03-04T07:44:43.921Z,7.9
2017-03-04T07:45:24.488Z,7.83
2017-03-04T07:46:05.090Z,7.87
2017-03-04T07:46:45.652Z,7.93
2017-03-04T07:47:26.423Z,7.95
2017-03-04T07:48:08.185Z,8
2017-03-04T07:48:48.766Z,7.97
2017-03-04T07:49:29.505Z,8.01
2017-03-04T07:50:14.953Z,8.06
2017-03-04T07:50:55.525Z,8.08
2017-03-04T07:51:37.310Z,8.09
2017-03-04T07:52:23.800Z,8.18
2017-03-04T07:53:04.540Z,8.15
2017-03-04T07:53:45.317Z,8.13
2017-03-04T07:54:26.059Z,8.2
2017-03-04T07:55:06.815Z,8.3
2017-03-04T07:55:47.571Z,8.33
2017-03-04T07:56:29.351Z,8.34
2017-03-04T07:57:10.107Z,8.36
2017-03-04T07:57:50.766Z,8.42
2017-03-04T07:58:32.435Z,8.38
2017-03-04T07:59:14.109Z,8.49
2017-03-04T07:59:54.767Z,8.53
2017-03-04T08:00:35.418Z,8.51
2017-03-04T08:01:16.083Z,8.49
2017-03-04T08:01:56.727Z,8.53
2017-03-04T08:02:37.385Z,8.67
2017-03-04T08:03:18.031Z,8.67
2017-03-04T08:03:58.666Z,8.67
2017-03-04T08:04:39.325Z,8.74
2017-03-04T08:05:19.996Z,8.73
2017-03-04T08:06:00.643Z,8.73
2017-03-04T08:06:41.297Z,8.67
2017-03-04T08:07:21.925Z,8.78
2017-03-04T08:08:02.500Z,8.71
2017-03-04T08:08:43.160Z,8.88
2017-03-04T08:09:23.784Z,8.84
2017-03-04T08:10:04.366Z,8.81
2017-03-04T08:10:45.003Z,8.88
2017-03-04T08:11:25.743Z,8.95
2017-03-04T08:12:06.303Z,8.97
2017-03-04T08:12:46.968Z,8.99
2017-03-04T08:13:32.305Z,8.99
2017-03-04T08:14:12.881Z,9.08
2017-03-04T08:14:53.547Z,9.08
2017-03-04T08:15:35.187Z,9.11
2017-03-04T08:16:15.799Z,9.1
2017-03-04T08:16:56.411Z,9.19
2017-03-04T08:17:41.923Z,9.21
2017-03-04T08:18:22.614Z,9.23
2017-03-04T08:19:03.183Z,9.26
2017-03-04T08:19:43.834Z,9.29
2017-03-04T08:20:24.409Z,9.28
2017-03-04T08:21:05.077Z,9.39
2017-03-04T08:21:46.704Z,9.41
2017-03-04T08:22:27.363Z,9.41
2017-03-04T08:23:08.004Z,9.44
2017-03-04T08:23:48.667Z,9.4
2017-03-04T08:24:29.320Z,9.41
2017-03-04T08:25:10.984Z,9.39
2017-03-04T08:25:51.662Z,9.5
2017-03-04T08:26:32.292Z,9.61
2017-03-04T08:27:12.959Z,9.61
2017-03-04T08:27:53.610Z,9.55
2017-03-04T08:28:34.250Z,9.5
2017-03-04T08:29:16.863Z,9.54
2017-03-04T08:29:57.573Z,9.68
2017-03-04T08:30:38.370Z,9.62
2017-03-04T08:31:19.012Z,9.65
2017-03-04T08:31:59.590Z,9.69
2017-03-04T08:32:40.241Z,9.62
2017-03-04T08:33:20.929Z,9.65
2017-03-04T08:34:02.553Z,9.74
2017-03-04T08:34:43.124Z,9.72
2017-03-04T08:35:24.799Z,9.83
2017-03-04T08:36:05.489Z,9.82
2017-03-04T08:36:47.212Z,9.8
2017-03-04T08:37:27.872Z,9.86
2017-03-04T08:38:08.522Z,9.91
2017-03-04T08:38:49.176Z,9.86
2017-03-04T08:39:30.854Z,9.98
2017-03-04T08:40:11.507Z,9.91
2017-03-04T08:40:52.161Z,9.94
2017-03-04T08:41:32.805Z,10.02
2017-03-04T08:42:13.391Z,9.98
2017-03-04T08:42:54.039Z,10.02
2017-03-04T08:43:34.717Z,10.01
2017-03-04T08:44:16.342Z,10.09
2017-03-04T08:44:56.921Z,10.1
2017-03-04T08:45:37.625Z,10.1
2017-03-04T08:46:18.247Z,10.07
2017-03-04T08:47:00.899Z,10.17
2017-03-04T08:47:41.476Z,10.17
2017-03-04T08:48:22.120Z,10.2
2017-03-04T08:49:02.804Z,10.26
2017-03-04T08:49:43.523Z,10.22
2017-03-04T08:50:24.090Z,10.23
2017-03-04T08:51:04.728Z,10.26
2017-03-04T08:51:45.431Z,10.26
2017-03-04T08:52:27.118Z,10.31
2017-03-04T08:53:07.751Z,10.31
2017-03-04T08:53:49.428Z,10.35
2017-03-04T08:54:30.076Z,10.41
2017-03-04T08:55:10.681Z,10.4
2017-03-04T08:55:53.291Z,10.42
2017-03-04T08:56:34.861Z,10.46
2017-03-04T08:57:15.441Z,10.49
2017-03-04T08:57:56.082Z,10.54
2017-03-04T08:58:36.712Z,10.57
2017-03-04T08:59:17.279Z,10.67
2017-03-04T08:59:58.937Z,10.69
2017-03-04T09:00:39.602Z,10.64
2017-03-04T09:01:20.196Z,10.64
2017-03-04T09:02:00.846Z,10.64
2017-03-04T09:02:41.427Z,10.72
2017-03-04T09:03:21.999Z,10.64
2017-03-04T09:04:02.573Z,10.64
2017-03-04T09:04:43.214Z,10.68
2017-03-04T09:05:23.960Z,10.81
2017-03-04T09:06:04.504Z,10.87
2017-03-04T09:06:45.161Z,10.82
2017-03-04T09:07:26.837Z,10.81
2017-03-04T09:08:07.483Z,10.86